Time;durP1;ratioP1;P1;durP2;ratioP2;P2;SDS_P1;SDS_P2;PMS_P1;PMS_P2;Temp;Humidity;BMP_temperature;BMP_pressure;BME280_temperature;BME280_humidity;BME280_pressure;Samples;Min_cycle;Max_cycle;Signal;HPM_P1;HPM_P2
2022/06/28 00:00:38;;;;;;;6.07;5.78;;;20.10;95.30;;;;;;5039525;28;20192;-85
2022/06/28 00:03:04;;;;;;;4.90;4.60;;;19.90;95.50;;;;;;5026631;28;20775;-85
2022/06/28 00:05:30;;;;;;;6.40;5.90;;;19.80;96.50;;;;;;5024911;28;20204;-85
2022/06/28 00:07:55;;;;;;;5.95;5.65;;;19.70;97.30;;;;;;5033304;28;20184;-85
2022/06/28 00:10:22;;;;;;;5.38;5.07;;;19.70;97.70;;;;;;4969518;28;1382258;-85
2022/06/28 00:12:48;;;;;;;5.03;4.72;;;19.70;97.00;;;;;;5018838;28;20223;-85
2022/06/28 00:17:59;;;;;;;5.75;5.03;;;19.80;96.50;;;;;;5036038;28;20486;-85
2022/06/28 00:20:25;;;;;;;5.70;5.40;;;19.90;96.30;;;;;;5029279;28;20190;-86
2022/06/28 00:22:51;;;;;;;5.35;5.05;;;19.90;96.40;;;;;;5032660;28;20247;-85
2022/06/28 00:25:17;;;;;;;5.72;5.32;;;19.90;96.20;;;;;;5036392;28;20181;-85
2022/06/28 00:27:43;;;;;;;4.95;4.60;;;19.90;96.20;;;;;;5036816;28;20177;-85
2022/06/28 00:30:10;;;;;;;5.38;5.18;;;20.00;96.10;;;;;;5010252;28;20193;-85
2022/06/28 00:32:36;;;;;;;5.82;4.97;;;20.00;96.10;;;;;;5026630;28;20908;-85
2022/06/28 00:35:03;;;;;;;6.03;5.53;;;19.90;96.30;;;;;;5010980;28;20269;-85
2022/06/28 00:37:30;;;;;;;5.53;5.22;;;19.90;95.90;;;;;;5032626;28;20686;-85
2022/06/28 00:39:55;;;;;;;5.47;5.07;;;19.90;95.60;;;;;;5018247;28;20243;-85
2022/06/28 00:42:22;;;;;;;4.80;4.50;;;19.90;94.70;;;;;;5037013;28;20216;-85
2022/06/28 00:44:47;;;;;;;6.60;6.10;;;19.90;95.20;;;;;;5020506;28;20250;-85
2022/06/28 00:47:14;;;;;;;5.85;5.53;;;19.80;96.50;;;;;;5038019;28;20708;-85
2022/06/28 00:49:41;;;;;;;5.70;5.40;;;19.80;96.80;;;;;;5038037;28;20209;-85
2022/06/28 00:52:12;;;;;;;5.28;4.88;;;19.90;96.20;;;;;;5034080;28;20760;-85
2022/06/28 00:54:38;;;;;;;5.13;4.82;;;19.80;94.50;;;;;;5031356;28;20192;-85
2022/06/28 00:57:05;;;;;;;5.00;4.70;;;19.70;95.00;;;;;;5026982;28;20257;-85
2022/06/28 00:59:31;;;;;;;5.38;4.97;;;19.70;95.20;;;;;;5034561;28;20191;-85
2022/06/28 01:02:00;;;;;;;5.60;4.50;;;19.70;94.40;;;;;;5026592;28;20224;-85
2022/06/28 01:04:26;;;;;;;4.22;3.92;;;19.60;94.40;;;;;;5027883;28;20251;-85
2022/06/28 01:06:53;;;;;;;5.15;4.18;;;19.60;94.80;;;;;;5033600;28;20184;-86
2022/06/28 01:09:19;;;;;;;5.25;4.95;;;19.60;95.70;;;;;;5028933;28;20187;-85
2022/06/28 01:11:45;;;;;;;5.32;4.93;;;19.60;95.30;;;;;;5014053;28;20263;-85
2022/06/28 01:14:11;;;;;;;5.28;4.88;;;19.60;95.30;;;;;;5016026;28;20231;-85
2022/06/28 01:16:38;;;;;;;4.57;4.07;;;19.60;94.60;;;;;;5034916;28;20211;-86
2022/06/28 01:19:05;;;;;;;4.72;4.40;;;19.50;94.20;;;;;;5029448;28;20645;-85
2022/06/28 01:21:34;;;;;;;5.63;4.72;;;19.50;94.40;;;;;;5034187;28;20207;-85
2022/06/28 01:24:00;;;;;;;5.45;4.38;;;19.50;95.20;;;;;;5034164;28;20299;-85
2022/06/28 01:26:25;;;;;;;5.00;4.70;;;19.50;94.40;;;;;;5030996;28;21027;-86
2022/06/28 01:28:52;;;;;;;4.63;4.22;;;19.50;94.50;;;;;;5015996;28;20193;-86
2022/06/28 01:31:22;;;;;;;4.55;4.25;;;19.50;93.90;;;;;;5035225;28;20289;-85
2022/06/28 01:33:50;;;;;;;4.82;4.43;;;19.50;93.90;;;;;;5030252;28;20184;-85
2022/06/28 01:36:16;;;;;;;4.20;3.95;;;19.50;94.00;;;;;;5024788;28;20194;-85
2022/06/28 01:38:42;;;;;;;4.30;3.83;;;19.50;93.90;;;;;;5036740;28;20229;-85
2022/06/28 01:41:32;;;;;;;3.83;3.63;;;19.40;93.40;;;;;;5033297;28;20186;-86
2022/06/28 01:43:55;;;;;;;4.00;3.80;;;19.40;93.80;;;;;;5035020;28;20733;-85
2022/06/28 01:46:21;;;;;;;5.00;4.68;;;19.30;95.10;;;;;;5024359;28;20183;-85
2022/06/28 01:48:46;;;;;;;4.65;4.30;;;19.30;96.00;;;;;;5020645;28;20211;-85
2022/06/28 01:51:12;;;;;;;5.00;4.70;;;19.20;96.70;;;;;;5027980;28;20241;-85
2022/06/28 01:53:38;;;;;;;4.22;4.03;;;19.20;93.40;;;;;;5028987;28;20198;-85
2022/06/28 01:56:04;;;;;;;4.45;4.10;;;19.00;94.90;;;;;;5024531;28;20239;-86
2022/06/28 01:58:30;;;;;;;4.47;4.18;;;18.80;96.20;;;;;;5013108;28;20192;-85
2022/06/28 02:00:56;;;;;;;4.95;4.47;;;18.70;97.30;;;;;;5028332;28;20690;-85
2022/06/28 02:03:22;;;;;;;4.75;4.40;;;18.80;96.80;;;;;;5038065;28;20222;-85
2022/06/28 02:05:47;;;;;;;4.43;4.13;;;18.80;96.40;;;;;;5023167;28;20186;-85
2022/06/28 02:08:13;;;;;;;4.90;4.28;;;18.90;96.00;;;;;;5031345;28;20373;-85
2022/06/28 02:10:39;;;;;;;4.50;4.22;;;18.90;94.70;;;;;;5015891;28;20196;-85
2022/06/28 02:13:05;;;;;;;4.85;4.45;;;18.80;95.80;;;;;;5037115;28;20209;-85
2022/06/28 02:15:31;;;;;;;5.07;4.68;;;18.80;95.50;;;;;;5018495;28;20212;-85
2022/06/28 02:18:00;;;;;;;4.18;3.88;;;18.80;95.40;;;;;;5030808;28;20186;-85
2022/06/28 02:20:26;;;;;;;4.85;4.65;;;18.80;94.90;;;;;;5034382;28;20207;-85
2022/06/28 02:22:52;;;;;;;4.10;3.55;;;18.80;95.00;;;;;;5031782;28;20210;-85
2022/06/28 02:25:18;;;;;;;4.72;4.25;;;18.80;94.70;;;;;;5033023;28;20221;-85
2022/06/28 02:27:43;;;;;;;3.55;3.42;;;18.80;93.90;;;;;;5032767;28;20177;-85
2022/06/28 02:30:11;;;;;;;3.95;3.65;;;18.70;94.30;;;;;;5027316;28;20275;-85
2022/06/28 02:32:36;;;;;;;4.40;3.67;;;18.60;95.70;;;;;;5038731;28;20205;-85
2022/06/28 02:40:31;;;;;;;4.15;3.95;;;18.70;94.60;;;;;;5042275;28;20295;-85
2022/06/28 02:42:59;;;;;;;4.47;4.13;;;18.50;95.10;;;;;;5014732;28;20237;-85
2022/06/28 02:45:28;;;;;;;4.47;4.20;;;18.40;94.60;;;;;;5032817;28;20208;-85
2022/06/28 02:47:54;;;;;;;3.70;3.50;;;18.30;95.60;;;;;;5035204;28;20185;-85
2022/06/28 02:50:20;;;;;;;3.83;3.63;;;18.40;95.40;;;;;;5030282;28;20188;-86
2022/06/28 02:52:46;;;;;;;4.55;3.85;;;18.40;94.90;;;;;;5033010;28;20907;-85
2022/06/28 02:55:12;;;;;;;4.18;3.88;;;18.30;94.80;;;;;;5037956;28;20193;-85
2022/06/28 02:57:38;;;;;;;3.83;3.63;;;18.30;95.40;;;;;;5031644;28;20185;-85
2022/06/28 03:00:10;;;;;;;6.60;3.63;;;18.30;95.60;;;;;;5025403;28;20185;-86
2022/06/28 03:02:37;;;;;;;4.20;4.00;;;18.40;94.90;;;;;;5032074;28;20209;-85
2022/06/28 03:05:09;;;;;;;3.50;3.30;;;18.30;94.00;;;;;;5038075;28;20225;-85
2022/06/28 03:07:36;;;;;;;3.97;3.72;;;18.30;95.30;;;;;;5027457;28;20180;-85
2022/06/28 03:10:02;;;;;;;3.55;3.25;;;18.30;95.80;;;;;;5038231;28;20685;-85
2022/06/28 03:12:28;;;;;;;3.80;3.47;;;18.20;95.00;;;;;;5027774;28;20224;-85
2022/06/28 03:14:54;;;;;;;3.90;3.60;;;18.30;95.20;;;;;;5034282;28;20685;-85
2022/06/28 03:17:20;;;;;;;3.20;3.00;;;18.30;94.50;;;;;;5036515;28;20184;-85
2022/06/28 03:19:46;;;;;;;3.95;3.15;;;18.10;94.70;;;;;;5025270;28;20220;-85
2022/06/28 03:22:11;;;;;;;3.95;3.58;;;18.20;95.60;;;;;;5038991;28;20225;-85
2022/06/28 03:24:37;;;;;;;3.83;3.50;;;18.20;95.30;;;;;;5034538;28;20192;-85
2022/06/28 03:27:03;;;;;;;4.38;4.03;;;18.10;95.00;;;;;;5038443;28;20192;-85
2022/06/28 03:29:29;;;;;;;3.95;3.60;;;18.00;93.20;;;;;;5035472;28;20182;-85
2022/06/28 03:31:55;;;;;;;3.63;3.42;;;17.90;95.70;;;;;;5041036;28;20224;-85
2022/06/28 03:34:20;;;;;;;4.03;3.72;;;17.90;96.00;;;;;;5015680;28;20202;-86
2022/06/28 03:36:47;;;;;;;3.42;3.22;;;18.00;95.30;;;;;;5031752;28;20181;-85
2022/06/28 03:39:13;;;;;;;4.80;3.80;;;18.10;95.50;;;;;;5039285;28;20538;-85
2022/06/28 03:41:39;;;;;;;4.03;3.72;;;18.20;95.70;;;;;;5038678;28;20616;-85
2022/06/28 03:44:05;;;;;;;3.45;3.25;;;18.10;93.70;;;;;;5015511;28;20227;-86
2022/06/28 03:46:31;;;;;;;3.85;3.45;;;18.20;94.00;;;;;;5031491;28;20263;-87
2022/06/28 03:48:56;;;;;;;3.40;3.20;;;18.30;94.80;;;;;;5013484;28;20188;-88
2022/06/28 03:51:23;;;;;;;3.25;3.10;;;18.20;94.60;;;;;;5034435;28;20189;-88
2022/06/28 03:53:48;;;;;;;3.45;3.25;;;18.20;94.60;;;;;;5028855;28;20204;-88
2022/06/28 03:56:14;;;;;;;3.90;3.53;;;18.20;94.20;;;;;;5015208;28;20189;-88
2022/06/28 03:58:40;;;;;;;4.18;3.88;;;18.20;93.60;;;;;;5030236;28;20192;-88
2022/06/28 04:01:06;;;;;;;4.75;4.32;;;18.10;93.90;;;;;;5030606;28;20215;-85
2022/06/28 04:03:32;;;;;;;4.03;3.72;;;18.10;94.00;;;;;;5025532;28;20233;-86
2022/06/28 04:05:57;;;;;;;3.80;3.60;;;18.00;95.00;;;;;;5003340;28;20338;-87
2022/06/28 04:08:23;;;;;;;3.53;3.22;;;18.10;94.80;;;;;;5019523;28;20178;-88
2022/06/28 04:11:13;;;;;;;4.25;3.85;;;18.10;93.40;;;;;;5028086;28;20205;-88
2022/06/28 04:13:35;;;;;;;4.47;3.88;;;18.00;94.60;;;;;;5025498;28;20193;-86
2022/06/28 04:16:01;;;;;;;4.00;3.47;;;18.00;96.00;;;;;;5020822;28;20204;-87
2022/06/28 04:18:26;;;;;;;3.83;3.53;;;18.00;95.50;;;;;;5022763;28;20581;-87
2022/06/28 04:20:52;;;;;;;3.80;3.50;;;17.90;95.50;;;;;;5026758;28;20183;-89
2022/06/28 04:23:18;;;;;;;4.22;3.85;;;18.00;95.50;;;;;;5016760;28;20240;-88
2022/06/28 04:25:43;;;;;;;4.15;3.95;;;18.00;95.50;;;;;;5024873;28;20188;-88
2022/06/28 04:28:09;;;;;;;5.53;5.22;;;18.00;95.30;;;;;;5026308;28;20279;-88
2022/06/28 04:30:35;;;;;;;4.07;3.78;;;18.00;94.80;;;;;;5022807;28;20173;-88
2022/06/28 04:33:01;;;;;;;3.45;3.25;;;17.80;95.90;;;;;;5028834;28;20216;-88
2022/06/28 04:35:27;;;;;;;4.95;3.67;;;17.90;96.60;;;;;;5028267;28;20204;-88
2022/06/28 04:37:52;;;;;;;5.90;3.70;;;17.90;96.90;;;;;;5020820;28;20256;-89
2022/06/28 04:40:18;;;;;;;4.00;3.70;;;17.90;96.70;;;;;;5011112;28;20201;-89
2022/06/28 04:42:44;;;;;;;6.07;3.80;;;17.90;96.00;;;;;;5004779;28;20221;-89
2022/06/28 04:45:10;;;;;;;5.03;4.00;;;18.00;96.20;;;;;;5024971;28;20186;-84
2022/06/28 04:47:36;;;;;;;4.72;4.43;;;18.00;96.00;;;;;;5027830;28;20218;-84
2022/06/28 04:50:01;;;;;;;5.15;4.65;;;18.00;96.20;;;;;;5023706;22;20173;-91
2022/06/28 04:52:27;;;;;;;4.65;4.30;;;18.10;96.00;;;;;;5033890;28;20200;-90
2022/06/28 04:54:53;;;;;;;4.28;3.88;;;18.00;96.10;;;;;;5043621;28;20204;-91
2022/06/28 04:57:19;;;;;;;4.45;4.05;;;17.90;97.40;;;;;;5010068;28;20225;-91
2022/06/28 04:59:44;;;;;;;3.53;3.33;;;18.00;97.70;;;;;;5017899;28;20842;-91
2022/06/28 05:02:10;;;;;;;4.45;4.25;;;18.10;97.70;;;;;;5041066;28;20288;-91
2022/06/28 05:04:36;;;;;;;4.75;4.40;;;18.20;97.70;;;;;;5040328;28;20197;-91
2022/06/28 05:07:02;;;;;;;5.95;4.25;;;18.20;97.20;;;;;;5036095;28;20934;-90
2022/06/28 05:09:28;;;;;;;4.50;4.05;;;18.20;97.80;;;;;;5029623;28;20748;-91
2022/06/28 05:11:53;;;;;;;4.22;4.00;;;18.20;98.40;;;;;;5037887;28;20228;-91
2022/06/28 05:14:19;;;;;;;4.80;4.50;;;18.20;99.50;;;;;;5036181;28;20235;-92
2022/06/28 05:16:45;;;;;;;4.80;4.50;;;18.10;99.90;;;;;;5030973;28;20195;-93
2022/06/28 05:19:11;;;;;;;5.07;4.78;;;18.10;99.90;;;;;;5016563;28;20295;-92
2022/06/28 05:21:37;;;;;;;4.80;4.40;;;18.00;99.90;;;;;;5026610;28;20244;-92
2022/06/28 05:24:04;;;;;;;4.97;4.68;;;18.10;99.90;;;;;;5035019;28;20209;-87
2022/06/28 05:26:30;;;;;;;5.95;5.30;;;18.30;99.90;;;;;;5033575;28;20710;-89
2022/06/28 05:28:56;;;;;;;5.15;4.75;;;18.30;99.90;;;;;;5024710;28;20208;-90
2022/06/28 05:31:21;;;;;;;5.00;4.60;;;18.30;99.80;;;;;;5039545;28;20180;-89
2022/06/28 05:33:47;;;;;;;5.35;4.85;;;18.30;99.50;;;;;;5036399;28;20192;-90
2022/06/28 05:36:13;;;;;;;5.45;4.97;;;18.30;99.60;;;;;;5042477;28;20193;-89
2022/06/28 05:38:39;;;;;;;5.35;5.05;;;18.30;99.70;;;;;;5041682;28;20205;-89
2022/06/28 05:41:05;;;;;;;5.88;5.30;;;18.30;99.90;;;;;;5043992;28;20189;-89
2022/06/28 05:43:30;;;;;;;5.63;5.25;;;18.30;99.90;;;;;;5043259;28;20224;-90
2022/06/28 05:45:57;;;;;;;7.57;5.57;;;18.40;99.90;;;;;;5040772;28;20185;-89
2022/06/28 05:48:22;;;;;;;6.28;5.78;;;18.40;99.40;;;;;;5045030;28;20176;-89
2022/06/28 05:50:48;;;;;;;5.25;4.85;;;18.50;99.40;;;;;;5057697;28;20239;-89
2022/06/28 05:53:14;;;;;;;5.15;4.85;;;18.60;99.20;;;;;;5056423;28;20195;-89
2022/06/28 05:55:40;;;;;;;5.75;5.32;;;18.60;99.40;;;;;;5040812;28;20177;-89
2022/06/28 05:58:06;;;;;;;5.55;5.07;;;18.60;99.20;;;;;;5049467;28;20185;-89
2022/06/28 06:00:33;;;;;;;5.50;5.10;;;18.70;99.20;;;;;;5042245;28;20252;-89
2022/06/28 06:03:00;;;;;;;5.63;5.13;;;18.70;98.40;;;;;;5043253;28;20212;-89
2022/06/28 06:05:26;;;;;;;6.90;5.70;;;18.80;98.40;;;;;;5041769;28;20174;-88
2022/06/28 06:07:52;;;;;;;5.80;5.30;;;18.80;98.30;;;;;;5044097;28;20681;-88
2022/06/28 06:10:18;;;;;;;5.70;5.30;;;18.70;97.80;;;;;;5025302;28;20189;-89
2022/06/28 06:12:44;;;;;;;5.63;5.25;;;18.70;99.20;;;;;;5018719;28;20220;-89
2022/06/28 06:15:10;;;;;;;6.20;5.50;;;18.80;99.10;;;;;;5037465;28;20249;-89
2022/06/28 06:17:35;;;;;;;5.88;5.50;;;18.80;98.60;;;;;;5021573;28;20212;-89
2022/06/28 06:20:02;;;;;;;6.07;5.57;;;18.70;97.70;;;;;;5043714;28;20211;-90
2022/06/28 06:22:29;;;;;;;5.40;5.00;;;18.70;97.70;;;;;;5040525;28;20214;-89
2022/06/28 06:24:55;;;;;;;5.72;5.10;;;18.70;98.50;;;;;;5048930;28;20188;-90
2022/06/28 06:27:21;;;;;;;5.22;4.80;;;18.80;97.70;;;;;;5040610;28;20197;-90
2022/06/28 06:29:46;;;;;;;5.70;5.20;;;18.90;97.60;;;;;;5038880;28;20196;-89
2022/06/28 06:32:12;;;;;;;5.53;5.07;;;19.00;96.70;;;;;;5042759;28;20204;-90
2022/06/28 06:34:38;;;;;;;5.15;4.85;;;19.00;97.40;;;;;;5007855;28;20224;-90
2022/06/28 06:37:04;;;;;;;5.53;5.13;;;19.10;96.70;;;;;;5042524;28;20984;-89
2022/06/28 06:39:30;;;;;;;5.43;4.93;;;19.10;95.20;;;;;;5025077;28;20204;-89
2022/06/28 06:41:56;;;;;;;5.15;4.85;;;19.10;94.70;;;;;;5039614;28;20205;-90
2022/06/28 06:44:22;;;;;;;5.05;4.75;;;19.20;93.50;;;;;;5023190;28;20192;-88
2022/06/28 06:46:48;;;;;;;5.35;4.90;;;19.40;93.40;;;;;;5041697;28;20207;-88
2022/06/28 06:49:14;;;;;;;4.95;4.47;;;19.30;92.10;;;;;;5024779;28;20205;-88
2022/06/28 06:51:44;;;;;;;5.03;4.55;;;19.40;92.60;;;;;;5038866;28;20306;-90
2022/06/28 06:54:12;;;;;;;4.38;4.07;;;19.50;90.00;;;;;;5021563;28;20189;-89
2022/06/28 06:56:39;;;;;;;6.38;4.10;;;19.40;89.80;;;;;;5021238;28;20185;-89
2022/06/28 06:59:07;;;;;;;4.75;4.45;;;19.40;92.20;;;;;;5020265;28;20188;-88
2022/06/28 07:01:33;;;;;;;4.55;4.25;;;19.40;90.20;;;;;;5040340;28;20208;-89
2022/06/28 07:03:59;;;;;;;5.15;4.85;;;19.50;90.90;;;;;;5038040;28;20217;-89
2022/06/28 07:06:25;;;;;;;4.30;4.10;;;19.60;89.90;;;;;;5037059;28;20185;-88
2022/06/28 07:08:51;;;;;;;4.95;4.43;;;19.80;88.70;;;;;;5038624;28;20200;-88
2022/06/28 07:11:16;;;;;;;4.50;4.10;;;19.80;87.70;;;;;;5039332;28;20260;-89
2022/06/28 07:13:42;;;;;;;4.20;3.80;;;19.80;86.80;;;;;;5038932;28;20189;-89
2022/06/28 07:16:08;;;;;;;3.95;3.75;;;19.80;86.30;;;;;;5046226;28;20253;-89
2022/06/28 07:18:34;;;;;;;4.80;4.28;;;20.00;86.90;;;;;;5041763;28;20190;-90
2022/06/28 07:21:00;;;;;;;4.43;4.13;;;20.10;85.90;;;;;;5045633;28;20193;-90
2022/06/28 07:23:26;;;;;;;4.78;4.30;;;20.10;84.40;;;;;;5040168;28;20213;-89
2022/06/28 07:25:52;;;;;;;4.05;3.75;;;20.20;83.80;;;;;;5038401;28;20188;-89
2022/06/28 07:28:18;;;;;;;3.85;3.55;;;20.30;83.40;;;;;;5020062;28;20317;-89
2022/06/28 07:30:44;;;;;;;4.00;3.80;;;20.40;81.50;;;;;;5004009;28;20188;-88
2022/06/28 07:33:10;;;;;;;3.92;3.60;;;20.50;79.80;;;;;;5019028;28;20210;-89
2022/06/28 07:35:36;;;;;;;4.47;3.85;;;20.60;78.80;;;;;;5039667;28;20197;-89
2022/06/28 07:38:02;;;;;;;3.75;3.55;;;20.60;79.70;;;;;;5022715;28;20187;-90
2022/06/28 07:40:28;;;;;;;3.83;3.63;;;20.80;79.10;;;;;;5035321;28;20278;-90
2022/06/28 07:42:53;;;;;;;4.07;3.88;;;21.00;78.50;;;;;;5037860;28;20209;-90
2022/06/28 07:45:20;;;;;;;3.55;3.35;;;21.10;76.70;;;;;;5036384;28;20184;-90
2022/06/28 07:47:47;;;;;;;5.10;4.00;;;21.10;74.40;;;;;;5041389;28;20210;-89
2022/06/28 07:53:06;;;;;;;3.55;3.30;;;21.20;74.80;;;;;;5035247;28;20223;-91
2022/06/28 07:55:32;;;;;;;4.18;3.58;;;21.20;73.70;;;;;;5038921;28;20592;-91
2022/06/28 07:57:58;;;;;;;3.90;3.60;;;21.20;73.40;;;;;;5016723;28;20554;-91
2022/06/28 08:00:25;;;;;;;3.97;3.67;;;21.30;73.80;;;;;;5014226;28;20197;-90
2022/06/28 08:02:51;;;;;;;3.42;3.22;;;21.30;73.20;;;;;;5015095;28;20247;-90
2022/06/28 08:05:18;;;;;;;3.65;3.45;;;21.50;71.90;;;;;;5033469;28;20197;-89
2022/06/28 08:07:44;;;;;;;3.20;3.03;;;21.40;70.60;;;;;;5036520;28;20192;-89
2022/06/28 08:10:11;;;;;;;3.35;3.15;;;21.50;69.90;;;;;;5033253;28;20203;-89
2022/06/28 08:12:37;;;;;;;4.03;3.15;;;21.70;69.40;;;;;;5036581;28;20213;-89
2022/06/28 08:15:04;;;;;;;3.83;3.22;;;21.80;66.20;;;;;;5025009;28;20243;-89
2022/06/28 08:17:30;;;;;;;3.70;3.40;;;21.90;64.00;;;;;;5053470;28;20277;-89
2022/06/28 08:19:56;;;;;;;4.35;3.33;;;22.00;60.70;;;;;;5044751;28;20211;-90
2022/06/28 08:22:22;;;;;;;3.40;3.20;;;22.10;60.10;;;;;;5040351;28;20220;-91
2022/06/28 08:24:48;;;;;;;3.55;3.35;;;22.20;59.10;;;;;;5033029;28;20749;-89
2022/06/28 08:27:14;;;;;;;3.47;3.28;;;22.30;60.20;;;;;;5040384;28;20204;-89
2022/06/28 08:29:42;;;;;;;3.03;2.88;;;22.50;59.30;;;;;;5040706;28;20188;-90
2022/06/28 08:32:10;;;;;;;3.42;3.22;;;22.60;58.30;;;;;;5041387;28;20213;-90
2022/06/28 08:34:37;;;;;;;4.38;3.90;;;22.70;56.80;;;;;;5040906;28;20200;-90
2022/06/28 08:37:03;;;;;;;3.72;3.50;;;22.80;57.20;;;;;;5021282;28;20193;-86
2022/06/28 08:39:29;;;;;;;3.60;3.30;;;22.90;53.50;;;;;;5039143;28;20215;-89
2022/06/28 08:41:58;;;;;;;3.70;3.47;;;22.90;52.80;;;;;;5038859;28;20217;-89
2022/06/28 08:44:24;;;;;;;4.00;3.70;;;22.90;54.90;;;;;;5025160;28;20672;-88
2022/06/28 08:46:53;;;;;;;4.07;3.83;;;22.90;56.20;;;;;;5032518;28;20737;-88
2022/06/28 08:49:27;;;;;;;3.97;3.78;;;23.10;56.80;;;;;;5020585;28;20252;-89
2022/06/28 08:51:54;;;;;;;3.85;3.65;;;23.20;54.60;;;;;;5036666;28;20227;-88
2022/06/28 08:54:22;;;;;;;3.95;3.75;;;23.20;53.50;;;;;;5034899;28;20211;-89
2022/06/28 08:56:49;;;;;;;3.83;3.63;;;23.20;56.80;;;;;;5040800;28;20632;-89
2022/06/28 08:59:16;;;;;;;4.35;4.05;;;23.30;53.90;;;;;;5041687;28;20189;-88
2022/06/28 09:01:42;;;;;;;4.13;3.83;;;23.40;52.70;;;;;;5039001;28;20204;-87
2022/06/28 09:04:10;;;;;;;4.05;3.75;;;23.40;51.90;;;;;;5042517;28;20220;-86
2022/06/28 09:06:36;;;;;;;4.47;4.18;;;23.50;51.70;;;;;;5025045;28;20272;-88
2022/06/28 09:09:01;;;;;;;4.28;3.92;;;23.80;51.70;;;;;;5041400;28;20743;-88
2022/06/28 09:11:42;;;;;;;4.45;4.15;;;23.70;49.50;;;;;;5021984;28;20271;-88
2022/06/28 09:14:26;;;;;;;4.72;4.32;;;23.80;51.30;;;;;;5038111;28;20193;-88
2022/06/28 09:16:52;;;;;;;4.32;4.03;;;24.00;50.30;;;;;;5036509;28;20259;-88
2022/06/28 09:19:35;;;;;;;4.45;4.20;;;24.10;51.90;;;;;;5038374;28;20189;-87
2022/06/28 09:22:05;;;;;;;4.97;4.47;;;24.20;47.80;;;;;;5041227;28;20264;-88
2022/06/28 09:24:31;;;;;;;4.35;4.07;;;24.30;48.10;;;;;;5039331;28;20204;-87
2022/06/28 09:27:05;;;;;;;4.95;4.53;;;24.50;47.00;;;;;;5041461;28;20173;-88
2022/06/28 09:29:49;;;;;;;5.38;5.07;;;24.60;47.00;;;;;;5043030;28;20254;-88
2022/06/28 09:32:15;;;;;;;4.90;4.70;;;24.90;47.10;;;;;;5042355;28;20291;-87
2022/06/28 09:34:57;;;;;;;5.00;4.63;;;25.00;43.70;;;;;;5048020;28;20204;-87
2022/06/28 09:37:47;;;;;;;4.07;3.88;;;25.00;44.40;;;;;;5051461;28;20256;-87
2022/06/28 09:40:18;;;;;;;4.15;3.85;;;24.90;43.40;;;;;;5041189;28;20188;-88
2022/06/28 09:42:46;;;;;;;4.85;4.25;;;24.80;45.00;;;;;;5039685;28;20241;-88
2022/06/28 09:45:16;;;;;;;5.00;4.80;;;25.10;43.40;;;;;;5042704;28;20184;-88
2022/06/28 09:47:48;;;;;;;4.97;4.68;;;25.30;45.20;;;;;;5022534;28;20273;-88
2022/06/28 09:50:20;;;;;;;4.80;4.43;;;25.50;45.80;;;;;;5042610;28;20263;-90
2022/06/28 09:52:46;;;;;;;4.75;4.55;;;25.60;41.40;;;;;;5040860;28;20212;-89
2022/06/28 09:55:15;;;;;;;9.98;9.07;;;25.60;39.20;;;;;;5037307;28;20177;-89
2022/06/28 09:57:47;;;;;;;5.25;4.95;;;25.70;40.60;;;;;;5041609;28;20197;-89
2022/06/28 10:00:14;;;;;;;5.50;5.03;;;25.80;40.30;;;;;;5042330;28;20181;-88
2022/06/28 10:02:42;;;;;;;5.15;4.85;;;25.70;41.50;;;;;;5036513;28;20601;-88
2022/06/28 10:05:11;;;;;;;5.40;5.10;;;26.10;38.90;;;;;;5003852;28;20284;-89
2022/06/28 10:07:38;;;;;;;6.30;5.72;;;26.10;39.00;;;;;;5037602;28;20272;-88
2022/06/28 10:10:06;;;;;;;7.70;5.25;;;26.20;38.50;;;;;;5041079;28;20177;-89
2022/06/28 10:15:19;;;;;;;5.63;5.40;;;26.40;38.90;;;;;;5037001;28;20240;-89
2022/06/28 10:17:59;;;;;;;5.85;5.55;;;26.60;38.50;;;;;;5040158;28;20189;-88
2022/06/28 10:20:36;;;;;;;6.15;5.80;;;26.60;40.10;;;;;;5040505;28;20227;-89
2022/06/28 10:23:25;;;;;;;6.13;5.65;;;26.80;37.90;;;;;;5037560;28;20665;-88
2022/06/28 10:26:09;;;;;;;5.00;4.65;;;27.00;37.30;;;;;;5040038;28;20253;-88
2022/06/28 10:28:39;;;;;;;4.93;4.70;;;26.80;38.10;;;;;;5021891;28;20181;-88
2022/06/28 10:31:34;;;;;;;5.85;5.55;;;26.80;38.20;;;;;;5039362;28;20237;-89
2022/06/28 10:34:02;;;;;;;5.55;5.35;;;27.00;39.70;;;;;;5034985;28;20264;-88
2022/06/28 10:36:42;;;;;;;5.10;4.80;;;27.20;37.80;;;;;;5041294;28;20734;-88
2022/06/28 10:39:08;;;;;;;5.80;5.35;;;27.30;37.50;;;;;;5041081;28;20201;-87
2022/06/28 10:41:42;;;;;;;5.32;5.03;;;27.30;39.10;;;;;;5045584;28;20208;-88
2022/06/28 10:44:34;;;;;;;5.78;5.38;;;27.10;38.60;;;;;;5049174;28;20287;-89
2022/06/28 10:47:07;;;;;;;6.30;6.00;;;27.20;38.80;;;;;;5026475;28;20199;-86
2022/06/28 10:49:43;;;;;;;5.63;5.32;;;27.30;37.40;;;;;;5053638;28;20185;-87
2022/06/28 10:52:16;;;;;;;6.35;5.82;;;27.70;36.70;;;;;;5054616;28;20216;-90
2022/06/28 10:55:03;;;;;;;6.53;6.13;;;27.80;36.90;;;;;;5055910;28;20169;-92
2022/06/28 10:57:32;;;;;;;5.45;5.13;;;27.70;37.40;;;;;;5042704;28;20759;-90
2022/06/28 11:00:01;;;;;;;6.18;5.75;;;27.70;36.90;;;;;;5040107;28;20192;-91
2022/06/28 11:02:49;;;;;;;6.40;6.10;;;27.80;37.20;;;;;;5039357;28;20228;-91
2022/06/28 11:05:17;;;;;;;5.32;5.10;;;28.00;36.40;;;;;;5010366;28;20212;-91
2022/06/28 11:07:59;;;;;;;5.65;5.25;;;28.10;36.70;;;;;;5041754;28;20185;-90
2022/06/28 11:10:25;;;;;;;6.43;5.93;;;28.20;36.60;;;;;;5038578;28;20189;-91
2022/06/28 11:12:50;;;;;;;7.75;7.13;;;28.40;36.60;;;;;;5037672;28;20715;-91
2022/06/28 11:15:35;;;;;;;7.38;6.90;;;28.50;37.30;;;;;;5033732;28;20279;-90
2022/06/28 11:18:01;;;;;;;6.95;6.65;;;28.50;36.20;;;;;;5036044;28;20277;-90
2022/06/28 11:20:29;;;;;;;7.18;6.78;;;28.60;36.80;;;;;;5037761;28;20208;-91
2022/06/28 11:22:55;;;;;;;7.45;7.05;;;28.50;36.00;;;;;;5017976;28;20243;-91
2022/06/28 11:25:23;;;;;;;7.65;7.25;;;28.60;36.20;;;;;;5021137;28;20695;-91
2022/06/28 11:27:57;;;;;;;7.15;6.82;;;28.70;36.00;;;;;;5024555;28;20189;-91
2022/06/28 11:30:27;;;;;;;8.20;7.90;;;28.80;35.00;;;;;;5037489;28;20196;-91
2022/06/28 11:32:55;;;;;;;8.18;7.82;;;29.20;36.50;;;;;;5035676;28;20204;-91
2022/06/28 11:35:29;;;;;;;8.65;8.35;;;29.40;33.60;;;;;;5037342;28;20599;-91
2022/06/28 11:38:03;;;;;;;8.45;8.05;;;29.40;34.40;;;;;;5036744;28;20653;-91
2022/06/28 11:40:44;;;;;;;8.52;8.02;;;29.80;34.40;;;;;;5038998;28;20203;-91
2022/06/28 11:43:11;;;;;;;7.43;6.95;;;30.20;33.80;;;;;;5038532;28;20228;-91
2022/06/28 11:45:48;;;;;;;7.15;6.80;;;30.10;32.50;;;;;;5031255;28;20649;-91
2022/06/28 11:48:18;;;;;;;6.72;6.32;;;30.30;33.10;;;;;;5035066;28;20183;-91
2022/06/28 11:50:49;;;;;;;6.18;5.78;;;30.20;33.10;;;;;;5031401;28;20235;-90
2022/06/28 11:53:16;;;;;;;6.55;6.25;;;29.70;32.90;;;;;;5034566;28;20705;-91
2022/06/28 11:55:49;;;;;;;6.07;5.72;;;29.40;33.90;;;;;;5044639;28;20172;-90
2022/06/28 11:58:28;;;;;;;6.35;6.05;;;29.70;33.80;;;;;;5039458;28;20192;-91
2022/06/28 12:01:16;;;;;;;5.45;5.20;;;29.90;32.20;;;;;;5032833;28;20251;-90
2022/06/28 12:03:42;;;;;;;5.35;5.05;;;30.10;32.20;;;;;;5033732;28;20607;-90
2022/06/28 12:06:23;;;;;;;5.15;4.85;;;29.70;31.80;;;;;;5039970;28;20197;-90
2022/06/28 12:08:50;;;;;;;5.15;4.95;;;29.80;32.70;;;;;;5020906;28;20247;-90
2022/06/28 12:11:29;;;;;;;5.70;5.30;;;29.70;32.90;;;;;;5007230;28;20670;-90
2022/06/28 12:14:04;;;;;;;5.20;5.00;;;29.50;34.00;;;;;;5042087;28;20177;-90
2022/06/28 12:16:33;;;;;;;5.30;5.00;;;29.60;32.80;;;;;;5041825;28;20197;-91
2022/06/28 12:19:00;;;;;;;5.38;5.07;;;29.90;32.90;;;;;;5039788;28;20695;-90
2022/06/28 12:21:28;;;;;;;5.43;5.15;;;30.30;31.30;;;;;;5023760;28;20633;-90
2022/06/28 12:23:56;;;;;;;5.45;5.05;;;30.30;33.10;;;;;;5032390;28;20244;-91
2022/06/28 12:26:40;;;;;;;5.63;5.22;;;30.00;32.90;;;;;;5014958;28;20185;-91
2022/06/28 12:29:06;;;;;;;5.20;5.00;;;30.00;32.50;;;;;;5038323;28;20184;-90
2022/06/28 12:31:32;;;;;;;5.45;5.15;;;30.10;33.00;;;;;;5038232;28;20284;-91
2022/06/28 12:33:58;;;;;;;5.43;5.22;;;30.10;32.10;;;;;;5038250;28;20239;-89
2022/06/28 12:36:24;;;;;;;5.63;5.32;;;30.40;33.20;;;;;;5038231;28;20189;-90
2022/06/28 12:38:50;;;;;;;6.32;5.75;;;30.60;32.50;;;;;;5003386;28;20204;-90
2022/06/28 12:41:15;;;;;;;5.65;5.35;;;30.50;32.80;;;;;;5036924;28;20197;-90
2022/06/28 12:43:41;;;;;;;6.30;5.90;;;30.90;32.40;;;;;;5032384;28;20278;-91
2022/06/28 12:46:07;;;;;;;6.90;6.60;;;31.70;31.50;;;;;;5019031;28;20177;-90
2022/06/28 12:48:33;;;;;;;8.52;8.13;;;31.40;29.60;;;;;;5038619;28;20184;-90
2022/06/28 12:50:59;;;;;;;7.43;7.13;;;30.80;31.70;;;;;;5038719;28;20272;-91
2022/06/28 12:53:25;;;;;;;8.13;7.68;;;31.00;31.60;;;;;;5019915;28;20209;-90
2022/06/28 12:55:51;;;;;;;9.52;8.88;;;31.30;30.70;;;;;;5039303;28;20189;-90
2022/06/28 12:58:17;;;;;;;8.65;8.25;;;31.10;30.60;;;;;;5021305;28;20220;-91
2022/06/28 13:00:44;;;;;;;9.15;8.55;;;31.30;30.40;;;;;;5041234;28;20185;-89
2022/06/28 13:03:10;;;;;;;9.10;8.60;;;31.10;30.80;;;;;;5022427;28;20208;-91
2022/06/28 13:05:37;;;;;;;9.07;8.68;;;31.40;30.70;;;;;;5035414;28;20196;-91